Flight Track Log - Related Links

Times and Time Zones

All times are in EDT time to prevent confusion due to time zone crossing. See the N552XJ flight status page for this flight to view local times or setup timezone preferences in your user account.

Time Position Orientation Groundspeed Altitude Reporting Facility
EDT Latitude Longitude Course Direction KTS MPH feet Rate Location/Type
Fri 01:10:27 PM 25.9136 -80.2547 56° Northeast 171 197 1,300  Level Miami Center
Fri 01:11:54 PM 25.9569 -80.1819 56° Northeast 250 288 3,300 1,824 Climbing Miami Center
Fri 01:12:55 PM 26.0017 -80.2364 312° West 280 322 5,800 3,836 Climbing Miami Center
Fri 01:13:56 PM 26.0228 -80.3178 286° West 297 342 11,100 4,744 Climbing Miami Center
Fri 01:15:04 PM 26.0792 -80.3981 308° West 330 380 16,000 2,250 Climbing Miami Center
Fri 01:16:04 PM 26.1333 -80.4947 302° West 354 407 15,900 -50 Descending Miami Center
Fri 01:17:04 PM 26.1956 -80.5961 304° West 382 440 15,900 50 Level Miami Center
Fri 01:18:04 PM 26.2533 -80.6975 302° West 387 445 16,000 50 Climbing Miami Center
Fri 01:19:04 PM 26.3172 -80.8083 303° West 392 451 16,000  Level Miami Center
Fri 01:20:04 PM 26.3733 -80.9008 304° West 398 458 16,000  Level Miami Center
Fri 01:21:04 PM 26.4456 -81.0031 308° West 390 449 16,000  Level Miami Center
Fri 01:22:04 PM 26.5269 -81.0825 319° Northwest 385 443 16,000  Level Miami Center
Fri 01:23:04 PM 26.6081 -81.1642 318° Northwest 391 450 16,000  Level Miami Center
Fri 01:24:04 PM 26.6831 -81.2392 318° Northwest 391 450 16,000  Level Miami Center
Fri 01:25:04 PM 26.7619 -81.3211 317° Northwest 391 450 16,000  Level Miami Center
Fri 01:26:04 PM 26.8294 -81.4283 305° West 384 442 16,000 -50 Level Miami Center
Fri 01:27:04 PM 26.8531 -81.5456 283° West 377 434 15,900 -550 Descending Miami Center
Fri 01:28:04 PM 26.8997 -81.6500 297° West 384 442 14,900 -950 Descending Miami Center
Fri 01:29:04 PM 26.9833 -81.7092 328° Northwest 378 435 14,000 -950 Descending Miami Center
Fri 01:30:04 PM 27.0750 -81.7714 329° Northwest 383 441 13,000 -900 Descending Miami Center
Fri 01:31:04 PM 27.1658 -81.8033 343° North 357 411 12,200 -1,250 Descending Miami Center
Fri 01:32:04 PM 27.2528 -81.8233 348° North 344 396 10,500 -2,200 Descending Miami Center
Fri 01:33:04 PM 27.3117 -81.8750 322° Northwest 317 365 7,800 -2,800 Descending Miami Center
Fri 01:34:04 PM 27.3294 -81.9597 283° West 257 296 4,900 -1,900 Descending Miami Center
Fri 01:35:04 PM 27.3411 -82.0422 279° West 257 296 4,000 -450 Descending Miami Center
Fri 01:36:04 PM 27.3528 -82.1222 279° West 262 302 4,000  Level Miami Center
Fri 01:37:04 PM 27.3622 -82.2067 277° West 267 307 4,000  Level Miami Center
Fri 01:38:04 PM 27.3697 -82.2889 276° West 267 307 4,000  Level Miami Center
Fri 01:39:04 PM 27.3769 -82.3686 276° West 267 307 4,000  Level Miami Center
Fri 01:39:38 PM 27.4000 -82.4167 298° West 276 318 4,000  Level Tampa TRACON
Fri 01:40:44 PM 27.4667 -82.4833 318° Northwest 272 313 4,000 -99 Level Tampa TRACON
Fri 01:41:39 PM 27.5167 -82.5167 329° Northwest 229 264 3,800 -887 Descending Tampa TRACON
Fri 01:42:39 PM 27.5167 -82.5667 270° West 198 228 2,300 -1,000 Descending Tampa TRACON
Fri 01:43:39 PM 27.4833 -82.6000 222° Southwest 150 173 1,800 -600 Descending Tampa TRACON
Fri 01:44:39 PM 27.4500 -82.6000 180° South 134 154 1,100 -600 Descending Tampa TRACON
Fri 01:45:39 PM 27.4167 -82.5833 156° South 117 135 600 -500 Descending Tampa TRACON
Fri 01:47:00 PM 27.3954 -82.5544 259° West  Level Estimated
Fri 01:54:00 PM 27.3954 -82.5544 259° West  Level Estimated
Fri 01:55:00 PM 27.3954 -82.5544 259° West  Level Estimated

Login

Don't have an account? Register now (free) for customized features, flight alerts, and more!